Cairns, Australia

5:48 AM AEST on December 05, 2016 (GMT +1000)
Cairns International | | Change Station

Elev 10 ft 16.87 °S, 145.75 °E | Updated 18 minutes ago

Scattered Clouds
Scattered Clouds
77 °F
Feels Like 77 °F
N
9
Wind Variable Wind from SSE

Today
High -- | Low -- °F
--% Chance of Precip.
Yesterday
High -- | Low -- °F
Precip. -- in
Pressure 29.89 in
Visibility 6.2 miles
Clouds Scattered Clouds 4700 ft
Dew Point 68 °F
Humidity 74%
Rainfall 0.00 in
Snow Depth Not available.
5:35 AM 6:40 PM
Waxing Crescent, 25% visible
METAR YBCS 041930Z AUTO 15008KT 9999 // SCT047 25/20 Q1012
Pressure 29.89 in
Visibility 6.2 miles
Clouds Scattered Clouds 4700 ft
Dew Point 68 °F
Humidity 74%
Rainfall 0.00 in
Snow Depth Not available.
5:35 AM 6:40 PM
Waxing Crescent, 25% visible
METAR YBCS 041930Z AUTO 15008KT 9999 // SCT047 25/20 Q1012

10-Day Weather Forecast

×

Almanac

Astronomy

Dec. 05, 2016 Rise Set
Actual Time
Civil Twilight
Nautical Twilight
Astronomical Twilight
Moon
Length of Visible Light
Length of Day
Tomorrow will be .
, % of the Moon is Illuminated

Today's Extremes

Country Highs Country Lows

Community

WunderPhotos

Upload Photos

1,955,652 photos uploaded!

WunderBlog® & News

Nearby

Air Quality

  Air Quality AQ Index Pollutant
Not available.

Snow Depth

Station Depth Elevation

Earthquake Activity

City Distance Mag. Time & Date
Minimum magnitude displayed is 2.5.

Coastal Water Temperatures

Place Temperature

Stations

Nearby Weather Stations

Station Location Temp. Windchill Dew Point Humidity Wind Precip. Elev Updated Type